Time;durP1;ratioP1;P1;durP2;ratioP2;P2;SDS_P1;SDS_P2;PMS_P1;PMS_P2;Temp;Humidity;BMP_temperature;BMP_pressure;BME280_temperature;BME280_humidity;BME280_pressure;Samples;Min_cycle;Max_cycle;Signal;HPM_P1;HPM_P2
2021/04/19 00:00:36;;;;;;;21.90;14.52;;;6.40;99.90;;;;;;5018400;28;20132;-56
2021/04/19 00:03:02;;;;;;;21.52;14.10;;;6.40;99.90;;;;;;5017859;28;20025;-50
2021/04/19 00:05:27;;;;;;;26.58;15.48;;;6.40;99.90;;;;;;5018232;28;20606;-53
2021/04/19 00:07:53;;;;;;;22.15;13.88;;;6.40;99.90;;;;;;5017698;28;20037;-55
2021/04/19 00:10:20;;;;;;;28.88;15.50;;;6.30;99.90;;;;;;5000190;28;20759;-54
2021/04/19 00:12:46;;;;;;;24.73;13.85;;;6.30;99.90;;;;;;4999807;28;20018;-52
2021/04/19 00:15:15;;;;;;;20.30;14.52;;;6.30;99.90;;;;;;5018313;28;20028;-54
2021/04/19 00:17:41;;;;;;;24.52;14.18;;;6.30;99.90;;;;;;4999886;28;20032;-51
2021/04/19 00:20:07;;;;;;;18.13;13.05;;;6.30;99.90;;;;;;4999349;28;20026;-53
2021/04/19 00:22:34;;;;;;;21.20;14.00;;;6.30;99.90;;;;;;5018536;28;20033;-53
2021/04/19 00:25:00;;;;;;;24.02;15.00;;;6.20;99.90;;;;;;5017595;28;20093;-52
2021/04/19 00:27:26;;;;;;;21.38;14.00;;;6.20;99.90;;;;;;5017202;28;20128;-55
2021/04/19 00:29:51;;;;;;;19.05;14.88;;;6.20;99.90;;;;;;5018524;28;20126;-53
2021/04/19 00:32:17;;;;;;;22.67;15.80;;;6.20;99.90;;;;;;5017204;28;20695;-52
2021/04/19 00:34:43;;;;;;;20.58;15.07;;;6.10;99.90;;;;;;5021339;28;20014;-53
2021/04/19 00:37:08;;;;;;;25.85;16.00;;;6.10;99.90;;;;;;5022027;28;20045;-56
2021/04/19 00:39:34;;;;;;;28.90;16.40;;;6.10;99.90;;;;;;5015207;28;20165;-53
2021/04/19 00:41:59;;;;;;;21.83;14.95;;;6.00;99.90;;;;;;5020045;28;20022;-51
2021/04/19 00:44:25;;;;;;;24.60;16.15;;;6.00;99.90;;;;;;5021184;28;20708;-52
2021/04/19 00:46:51;;;;;;;31.08;18.15;;;6.00;99.90;;;;;;5019691;28;20779;-52
2021/04/19 00:49:17;;;;;;;27.60;17.20;;;5.90;99.90;;;;;;5020969;28;20022;-52
2021/04/19 00:51:44;;;;;;;22.77;17.50;;;5.90;99.90;;;;;;5020856;28;20404;-55
2021/04/19 00:54:11;;;;;;;23.70;16.85;;;5.80;99.90;;;;;;5018943;28;20034;-50
2021/04/19 00:56:37;;;;;;;23.65;17.27;;;5.80;99.90;;;;;;5020777;28;20029;-52
2021/04/19 00:59:03;;;;;;;25.65;17.63;;;5.90;99.90;;;;;;5000651;28;20534;-53
2021/04/19 01:01:31;;;;;;;27.88;16.85;;;5.80;99.90;;;;;;5018220;28;20033;-55
2021/04/19 01:03:57;;;;;;;24.13;16.77;;;5.80;99.90;;;;;;5016405;28;20029;-51
2021/04/19 01:06:23;;;;;;;23.33;16.45;;;5.80;99.90;;;;;;5002871;28;20033;-52
2021/04/19 01:08:48;;;;;;;24.42;15.90;;;5.80;99.90;;;;;;5020725;28;20030;-51
2021/04/19 01:11:14;;;;;;;24.17;16.13;;;5.80;99.90;;;;;;5020488;28;20749;-51
2021/04/19 01:13:40;;;;;;;20.77;15.63;;;5.80;99.90;;;;;;4994245;28;20040;-49
2021/04/19 01:16:05;;;;;;;24.42;15.75;;;5.80;99.90;;;;;;5018958;28;20111;-53
2021/04/19 01:18:31;;;;;;;20.83;14.18;;;5.80;99.90;;;;;;5004177;28;20029;-53
2021/04/19 01:20:57;;;;;;;24.08;15.32;;;5.70;99.90;;;;;;5019746;28;20045;-54
2021/04/19 01:23:23;;;;;;;19.20;14.05;;;5.70;99.90;;;;;;5020270;28;20036;-52
2021/04/19 01:25:49;;;;;;;21.88;14.23;;;5.70;99.90;;;;;;5020205;28;20029;-51
2021/04/19 01:28:15;;;;;;;20.50;13.73;;;5.70;99.90;;;;;;5056387;22;20053;-56
2021/04/19 01:30:47;;;;;;;18.38;13.63;;;5.60;99.90;;;;;;5021211;28;20027;-56
2021/04/19 01:33:14;;;;;;;15.88;12.75;;;5.60;99.90;;;;;;5037493;28;20441;-57
2021/04/19 01:35:40;;;;;;;24.25;14.93;;;5.50;99.90;;;;;;5039828;28;20021;-57
2021/04/19 01:38:07;;;;;;;21.30;14.48;;;5.50;99.90;;;;;;5007473;28;20026;-55
2021/04/19 01:40:33;;;;;;;28.13;14.93;;;5.50;99.90;;;;;;5019723;28;20029;-56
2021/04/19 01:42:59;;;;;;;20.60;14.32;;;5.50;99.90;;;;;;4996644;28;20533;-57
2021/04/19 01:45:25;;;;;;;19.90;13.73;;;5.40;99.90;;;;;;5017607;28;20034;-53
2021/04/19 01:47:52;;;;;;;17.08;14.50;;;5.40;99.90;;;;;;4998440;28;20298;-57
2021/04/19 01:50:23;;;;;;;20.95;13.95;;;5.30;99.90;;;;;;5018142;28;20068;-57
2021/04/19 01:52:49;;;;;;;19.30;15.13;;;5.30;99.90;;;;;;5020373;28;20017;-58
2021/04/19 01:55:18;;;;;;;22.15;14.45;;;5.30;99.90;;;;;;5019521;28;20048;-57
2021/04/19 01:57:50;;;;;;;24.08;15.23;;;5.30;99.90;;;;;;5019489;28;20060;-56
2021/04/19 02:00:17;;;;;;;19.33;15.13;;;5.30;99.90;;;;;;5018196;28;20087;-57
2021/04/19 02:02:52;;;;;;;21.02;15.35;;;5.20;99.90;;;;;;5018514;28;20026;-58
2021/04/19 02:05:36;;;;;;;21.02;13.38;;;5.20;99.90;;;;;;5018087;28;20032;-56
2021/04/19 02:08:20;;;;;;;18.90;13.32;;;5.20;99.90;;;;;;5019179;28;20411;-57
2021/04/19 02:10:52;;;;;;;20.30;14.43;;;5.10;99.90;;;;;;5018299;28;20053;-57
2021/04/19 02:13:49;;;;;;;20.25;13.48;;;5.00;99.90;;;;;;5018881;28;20056;-56
2021/04/19 02:16:27;;;;;;;25.48;16.88;;;5.00;99.90;;;;;;5017637;28;20388;-60
2021/04/19 02:19:24;;;;;;;23.90;16.63;;;5.00;99.90;;;;;;5017330;28;20101;-56
2021/04/19 02:21:54;;;;;;;22.50;16.17;;;4.90;99.90;;;;;;5016581;28;20025;-56
2021/04/19 02:24:22;;;;;;;22.75;17.02;;;4.90;99.90;;;;;;5018430;28;20036;-56
2021/04/19 02:27:07;;;;;;;19.83;15.32;;;4.80;99.90;;;;;;5016877;28;20532;-57
2021/04/19 02:29:37;;;;;;;22.70;16.00;;;4.80;99.90;;;;;;5018425;28;20030;-56
2021/04/19 02:32:15;;;;;;;26.25;16.08;;;4.80;99.90;;;;;;5018748;28;20107;-56
2021/04/19 02:34:41;;;;;;;27.67;17.60;;;4.80;99.90;;;;;;5000398;28;20021;-57
2021/04/19 02:37:09;;;;;;;21.42;15.00;;;4.70;99.90;;;;;;5015045;28;20018;-58
2021/04/19 02:39:40;;;;;;;23.17;16.10;;;4.70;99.90;;;;;;5015686;28;20042;-56
2021/04/19 02:42:07;;;;;;;24.02;16.08;;;4.70;99.90;;;;;;5016644;28;20018;-56
2021/04/19 02:44:33;;;;;;;25.02;15.52;;;4.60;99.90;;;;;;5018566;28;20021;-59
2021/04/19 02:47:00;;;;;;;26.20;16.73;;;4.60;99.90;;;;;;5019224;28;20078;-55
2021/04/19 02:49:33;;;;;;;23.63;16.55;;;4.60;99.90;;;;;;5018065;28;20029;-57
2021/04/19 02:52:01;;;;;;;24.08;16.27;;;4.50;99.90;;;;;;4992006;28;20525;-58
2021/04/19 02:54:27;;;;;;;20.65;15.73;;;4.50;99.90;;;;;;5016456;28;20404;-56
2021/04/19 02:56:55;;;;;;;26.45;16.55;;;4.50;99.90;;;;;;5016814;28;20776;-58
2021/04/19 02:59:23;;;;;;;28.67;19.02;;;4.50;99.90;;;;;;5016493;28;20033;-57
2021/04/19 03:01:51;;;;;;;29.17;20.60;;;4.50;99.90;;;;;;5017587;28;20030;-57
2021/04/19 03:04:21;;;;;;;29.20;21.05;;;4.50;99.90;;;;;;5017295;28;20033;-59
2021/04/19 03:06:50;;;;;;;33.10;23.95;;;4.50;99.90;;;;;;5015411;28;20030;-58
2021/04/19 03:09:17;;;;;;;36.88;22.27;;;4.60;99.90;;;;;;5016651;28;20050;-58
2021/04/19 03:11:49;;;;;;;32.75;23.00;;;4.60;99.90;;;;;;5017010;28;20029;-57
2021/04/19 03:14:15;;;;;;;32.13;24.83;;;4.70;99.90;;;;;;5017365;28;20037;-59
2021/04/19 03:16:49;;;;;;;37.10;24.60;;;4.70;99.90;;;;;;5017327;28;20071;-58
2021/04/19 03:19:21;;;;;;;39.78;25.65;;;4.80;99.90;;;;;;5017013;28;20092;-59
2021/04/19 03:21:49;;;;;;;41.08;25.33;;;4.80;99.90;;;;;;5017181;28;20428;-58
2021/04/19 03:24:15;;;;;;;37.13;25.52;;;4.80;99.90;;;;;;5015193;28;20033;-57
2021/04/19 03:26:43;;;;;;;40.35;25.80;;;4.80;99.90;;;;;;5017108;28;20120;-58
2021/04/19 03:29:10;;;;;;;40.38;28.30;;;4.90;99.90;;;;;;5015153;28;20041;-56
2021/04/19 03:31:49;;;;;;;50.88;28.83;;;4.90;99.90;;;;;;5016735;28;20029;-56
2021/04/19 03:34:32;;;;;;;47.90;28.73;;;4.90;99.90;;;;;;5014808;28;20474;-57
2021/04/19 03:37:02;;;;;;;44.53;27.38;;;5.00;99.90;;;;;;5015069;28;20129;-56
2021/04/19 03:39:28;;;;;;;54.20;31.70;;;5.00;99.90;;;;;;5018312;28;20606;-58
2021/04/19 03:41:57;;;;;;;48.85;29.80;;;5.00;99.90;;;;;;5016868;28;20030;-58
2021/04/19 03:44:27;;;;;;;50.22;27.73;;;5.00;99.90;;;;;;4998281;28;20030;-55
2021/04/19 03:46:55;;;;;;;42.75;27.27;;;5.00;99.90;;;;;;5015567;28;20061;-57
2021/04/19 03:49:30;;;;;;;70.10;31.45;;;5.00;99.90;;;;;;5016270;28;20021;-57
2021/04/19 03:52:02;;;;;;;41.27;28.77;;;5.00;99.90;;;;;;5013104;28;20028;-57
2021/04/19 03:54:32;;;;;;;72.45;29.88;;;4.90;99.90;;;;;;5015944;28;20272;-58
2021/04/19 03:57:03;;;;;;;63.78;28.33;;;4.90;99.90;;;;;;4998668;28;20030;-58
2021/04/19 03:59:31;;;;;;;46.45;25.40;;;4.90;99.90;;;;;;5016313;28;20380;-57
2021/04/19 04:02:01;;;;;;;38.28;24.05;;;4.90;99.90;;;;;;5016107;28;20056;-60
2021/04/19 04:04:27;;;;;;;45.15;25.63;;;4.90;99.90;;;;;;5016636;28;20029;-57
2021/04/19 04:06:53;;;;;;;35.67;23.58;;;4.90;99.90;;;;;;5015778;28;20038;-58
2021/04/19 04:09:20;;;;;;;34.25;24.80;;;4.90;99.90;;;;;;5015813;28;20079;-57
2021/04/19 04:11:46;;;;;;;36.45;24.08;;;4.90;99.90;;;;;;5015848;28;20396;-55
2021/04/19 04:14:11;;;;;;;34.65;23.45;;;4.90;99.90;;;;;;5014078;28;20034;-57
2021/04/19 04:16:42;;;;;;;36.50;24.95;;;4.90;99.90;;;;;;4997706;28;20029;-56
2021/04/19 04:19:08;;;;;;;35.85;23.30;;;4.90;99.90;;;;;;4998133;28;20060;-60
2021/04/19 04:21:35;;;;;;;30.50;23.20;;;4.90;99.90;;;;;;4997612;28;20057;-57
2021/04/19 04:24:01;;;;;;;51.33;22.60;;;4.90;99.90;;;;;;5017073;28;20022;-57
2021/04/19 04:26:27;;;;;;;36.13;22.80;;;4.90;99.90;;;;;;5018341;28;20465;-57
2021/04/19 04:28:54;;;;;;;38.00;23.42;;;4.90;99.90;;;;;;5015537;28;20034;-59
2021/04/19 04:31:19;;;;;;;37.28;22.25;;;4.90;99.90;;;;;;5016905;28;20675;-56
2021/04/19 04:33:45;;;;;;;36.38;20.77;;;4.90;99.90;;;;;;5017116;28;20029;-57
2021/04/19 04:36:11;;;;;;;40.65;20.95;;;4.90;99.90;;;;;;5017176;28;20021;-54
2021/04/19 04:38:36;;;;;;;47.70;22.60;;;5.00;99.90;;;;;;5010197;28;20389;-59
2021/04/19 04:41:02;;;;;;;35.22;20.85;;;5.00;99.90;;;;;;5018176;28;20022;-57
2021/04/19 04:43:30;;;;;;;38.83;21.02;;;5.00;99.90;;;;;;5016572;28;20037;-58
2021/04/19 04:46:04;;;;;;;27.17;19.85;;;5.00;99.90;;;;;;5015003;28;20036;-58
2021/04/19 04:48:54;;;;;;;32.10;20.27;;;5.00;99.90;;;;;;5017143;28;20030;-57
2021/04/19 04:51:25;;;;;;;32.22;21.38;;;5.10;99.90;;;;;;5015875;28;20018;-58
2021/04/19 04:53:54;;;;;;;39.70;21.23;;;5.10;99.90;;;;;;5016494;28;20017;-57
2021/04/19 04:56:23;;;;;;;35.05;20.63;;;5.10;99.90;;;;;;4997038;28;20108;-58
2021/04/19 04:58:53;;;;;;;30.65;20.35;;;5.10;99.90;;;;;;5014969;28;20496;-58
2021/04/19 05:01:21;;;;;;;31.15;20.33;;;5.20;99.90;;;;;;5014434;28;20022;-58
2021/04/19 05:03:48;;;;;;;31.58;20.15;;;5.20;99.90;;;;;;5017074;28;20048;-60
2021/04/19 05:06:15;;;;;;;34.63;20.23;;;5.20;99.90;;;;;;5014535;28;20087;-59
2021/04/19 05:08:41;;;;;;;34.00;21.73;;;5.30;99.90;;;;;;4999184;28;20014;-56
2021/04/19 05:11:08;;;;;;;35.15;20.40;;;5.30;99.90;;;;;;4998999;28;20026;-58
2021/04/19 05:13:34;;;;;;;28.95;19.65;;;5.30;99.90;;;;;;5016925;28;20068;-56
2021/04/19 05:16:01;;;;;;;32.70;20.58;;;5.30;99.90;;;;;;5000034;28;20026;-57
2021/04/19 05:18:27;;;;;;;34.67;19.98;;;5.40;99.90;;;;;;5017034;28;20490;-59
2021/04/19 05:20:54;;;;;;;29.58;20.30;;;5.40;99.90;;;;;;5019251;28;20037;-57
2021/04/19 05:23:20;;;;;;;29.13;19.73;;;5.40;99.90;;;;;;5020441;28;20038;-58
2021/04/19 05:25:46;;;;;;;33.45;19.52;;;5.50;99.90;;;;;;5019527;28;20487;-57
2021/04/19 05:28:13;;;;;;;36.20;20.08;;;5.50;99.90;;;;;;5020421;28;20518;-57
2021/04/19 05:30:38;;;;;;;30.15;20.63;;;5.50;99.90;;;;;;5020564;28;20539;-57
2021/04/19 05:33:05;;;;;;;49.40;20.77;;;5.50;99.90;;;;;;5020365;28;20033;-55
2021/04/19 05:35:32;;;;;;;47.80;21.42;;;5.50;99.90;;;;;;5019186;28;20022;-54
2021/04/19 05:37:58;;;;;;;35.45;21.83;;;5.50;99.90;;;;;;5018100;28;20113;-58
2021/04/19 05:40:29;;;;;;;44.88;21.48;;;5.50;99.90;;;;;;5019533;28;20018;-58
2021/04/19 05:42:56;;;;;;;32.65;21.15;;;5.60;99.90;;;;;;5015884;28;20399;-58
2021/04/19 05:45:22;;;;;;;35.92;20.35;;;5.60;99.90;;;;;;5018925;28;20037;-58
2021/04/19 05:47:52;;;;;;;37.42;20.73;;;5.70;99.90;;;;;;5018184;28;20030;-56
2021/04/19 05:50:20;;;;;;;35.60;21.13;;;5.70;99.90;;;;;;5018445;28;20034;-59
2021/04/19 05:52:48;;;;;;;34.40;21.48;;;5.80;99.90;;;;;;5000984;28;20049;-57
2021/04/19 05:55:15;;;;;;;30.75;20.08;;;5.80;99.90;;;;;;5018463;28;20028;-57
2021/04/19 05:58:08;;;;;;;42.70;22.20;;;5.80;99.90;;;;;;5002070;28;20033;-58
2021/04/19 06:00:39;;;;;;;38.60;20.65;;;5.80;99.90;;;;;;5017768;28;20033;-58
2021/04/19 06:03:18;;;;;;;54.28;22.95;;;5.80;99.90;;;;;;5018949;28;20028;-59
2021/04/19 06:05:56;;;;;;;36.10;21.10;;;5.80;99.90;;;;;;5018312;28;20518;-59
2021/04/19 06:08:36;;;;;;;33.88;19.13;;;5.80;99.90;;;;;;5018604;28;20530;-60
2021/04/19 06:11:13;;;;;;;33.20;20.67;;;5.80;99.90;;;;;;5019336;28;20695;-59
2021/04/19 06:13:43;;;;;;;33.08;21.02;;;5.90;99.90;;;;;;5019614;28;20034;-58
2021/04/19 06:16:09;;;;;;;34.17;20.92;;;5.90;99.90;;;;;;5016258;28;20126;-56
2021/04/19 06:18:35;;;;;;;31.20;20.25;;;6.00;99.90;;;;;;5019257;28;20535;-58
2021/04/19 06:21:02;;;;;;;31.75;18.55;;;6.10;99.90;;;;;;5018541;28;20098;-58
2021/04/19 06:23:28;;;;;;;35.13;19.75;;;6.10;99.90;;;;;;5000839;28;20034;-56
2021/04/19 06:25:54;;;;;;;32.78;20.35;;;6.20;99.90;;;;;;5001019;28;20487;-54
2021/04/19 06:28:23;;;;;;;26.67;17.73;;;6.30;99.90;;;;;;5016220;28;20029;-58
2021/04/19 06:30:49;;;;;;;27.08;16.65;;;6.30;99.90;;;;;;5014322;28;20029;-59
2021/04/19 06:33:19;;;;;;;45.85;17.92;;;6.20;99.90;;;;;;5018034;28;20025;-60
2021/04/19 06:35:46;;;;;;;21.67;16.17;;;6.20;99.90;;;;;;5017815;28;20428;-58
2021/04/19 06:38:12;;;;;;;47.42;18.70;;;6.20;99.90;;;;;;5018321;28;20041;-58
2021/04/19 06:40:41;;;;;;;37.92;17.20;;;6.20;99.90;;;;;;5016574;28;20613;-55
2021/04/19 06:43:07;;;;;;;35.58;17.50;;;6.30;99.90;;;;;;5017722;28;20672;-56
2021/04/19 06:45:35;;;;;;;33.17;17.50;;;6.30;99.90;;;;;;5017321;28;20131;-57
2021/04/19 06:48:03;;;;;;;27.60;17.65;;;6.20;99.90;;;;;;5017859;28;20022;-58
2021/04/19 06:50:29;;;;;;;26.00;16.73;;;6.20;99.90;;;;;;4998218;28;20033;-58
2021/04/19 06:52:55;;;;;;;37.08;18.58;;;6.30;99.90;;;;;;5000948;28;20057;-59
2021/04/19 06:55:21;;;;;;;28.73;17.90;;;6.20;99.90;;;;;;5018002;28;20018;-57
2021/04/19 06:57:52;;;;;;;25.10;18.10;;;6.30;99.90;;;;;;5014726;28;20033;-59
2021/04/19 07:00:19;;;;;;;43.53;18.70;;;6.30;99.90;;;;;;5014477;28;20561;-58
2021/04/19 07:02:48;;;;;;;32.72;17.23;;;6.40;99.90;;;;;;5013086;28;20071;-59
2021/04/19 07:05:18;;;;;;;26.60;17.73;;;6.40;99.90;;;;;;4999978;28;20492;-59
2021/04/19 07:07:53;;;;;;;35.08;16.67;;;6.40;99.90;;;;;;5000427;28;20021;-59
2021/04/19 07:10:19;;;;;;;27.67;16.13;;;6.40;99.90;;;;;;5015569;28;20030;-55
2021/04/19 07:12:46;;;;;;;24.27;16.63;;;6.50;99.90;;;;;;5017623;28;20447;-55
2021/04/19 07:15:13;;;;;;;24.08;15.70;;;6.60;99.90;;;;;;5016467;28;20041;-59
2021/04/19 07:17:40;;;;;;;22.55;15.23;;;6.70;99.90;;;;;;5016879;28;20084;-56
2021/04/19 07:20:06;;;;;;;23.90;15.77;;;6.80;99.90;;;;;;5016333;28;20025;-57
2021/04/19 07:22:32;;;;;;;24.15;15.65;;;6.90;99.90;;;;;;5015383;28;20423;-58
2021/04/19 07:24:59;;;;;;;23.38;16.55;;;7.00;99.90;;;;;;5014193;28;20121;-59
2021/04/19 07:27:25;;;;;;;23.83;16.40;;;7.00;99.90;;;;;;4997816;28;567738;-59
2021/04/19 07:29:51;;;;;;;23.42;15.60;;;7.00;99.90;;;;;;5016612;28;20034;-56
2021/04/19 07:32:16;;;;;;;22.27;15.10;;;7.00;99.90;;;;;;5015890;28;20038;-57
2021/04/19 07:34:55;;;;;;;19.95;14.18;;;7.00;99.90;;;;;;4998878;28;20029;-58
2021/04/19 07:37:21;;;;;;;22.50;14.65;;;7.10;99.90;;;;;;5017905;28;20455;-57
2021/04/19 07:39:46;;;;;;;20.00;14.35;;;7.30;99.90;;;;;;4999902;28;20022;-57
2021/04/19 07:42:12;;;;;;;22.58;15.57;;;7.30;99.90;;;;;;5016113;28;20032;-58
2021/04/19 07:44:47;;;;;;;22.05;15.85;;;7.40;99.90;;;;;;5016442;28;20029;-58
2021/04/19 07:47:19;;;;;;;24.90;16.05;;;7.50;99.90;;;;;;5015951;28;20088;-59
2021/04/19 07:50:20;;;;;;;23.40;14.70;;;7.60;99.90;;;;;;5015311;28;20415;-58
2021/04/19 07:53:00;;;;;;;25.88;15.70;;;7.70;99.90;;;;;;5015232;28;20440;-58
2021/04/19 07:55:30;;;;;;;23.60;16.25;;;7.70;99.90;;;;;;5012885;28;20555;-58
2021/04/19 07:57:57;;;;;;;23.48;15.30;;;7.70;99.90;;;;;;4998238;28;20510;-57
2021/04/19 08:00:30;;;;;;;23.83;16.58;;;7.60;99.90;;;;;;5014961;28;20030;-57
2021/04/19 08:03:05;;;;;;;29.98;16.40;;;7.50;99.90;;;;;;5015336;28;20033;-57
2021/04/19 08:05:38;;;;;;;25.60;16.75;;;7.50;99.90;;;;;;5012239;28;20040;-59
2021/04/19 08:08:05;;;;;;;21.40;15.40;;;7.60;99.90;;;;;;5016162;28;20495;-59
2021/04/19 08:10:31;;;;;;;22.67;16.35;;;7.60;99.90;;;;;;5016595;28;20732;-58
2021/04/19 08:13:03;;;;;;;22.63;16.02;;;7.70;99.90;;;;;;5014167;28;20117;-55
2021/04/19 08:15:28;;;;;;;26.35;16.67;;;7.80;99.90;;;;;;4997636;28;20124;-58
2021/04/19 08:18:01;;;;;;;20.90;14.93;;;7.80;99.90;;;;;;5016950;28;20575;-57
2021/04/19 08:20:27;;;;;;;21.00;14.25;;;7.80;99.90;;;;;;5016674;28;20033;-58
2021/04/19 08:23:11;;;;;;;22.10;14.82;;;7.80;99.90;;;;;;5015813;28;20570;-60
2021/04/19 08:25:57;;;;;;;24.08;15.13;;;7.90;99.90;;;;;;5017263;28;20106;-58
2021/04/19 08:28:24;;;;;;;23.52;16.30;;;8.00;99.90;;;;;;5015881;28;20176;-56
2021/04/19 08:30:55;;;;;;;26.88;17.25;;;8.10;99.90;;;;;;5015718;28;20029;-59
2021/04/19 08:33:22;;;;;;;22.40;16.23;;;8.30;99.90;;;;;;5011677;28;20053;-55
2021/04/19 08:35:50;;;;;;;22.15;16.30;;;8.40;99.90;;;;;;5014920;28;20025;-57
2021/04/19 08:38:20;;;;;;;23.60;16.60;;;8.40;99.90;;;;;;5015172;28;20033;-56
2021/04/19 08:40:46;;;;;;;25.88;16.50;;;8.40;99.90;;;;;;5014498;28;20053;-58
2021/04/19 08:43:24;;;;;;;24.38;15.30;;;8.40;99.90;;;;;;4998867;28;20169;-58
2021/04/19 08:45:50;;;;;;;25.42;15.23;;;8.30;99.90;;;;;;5016437;28;20055;-57
2021/04/19 08:48:16;;;;;;;23.75;15.52;;;8.30;99.90;;;;;;4997934;28;20045;-57
2021/04/19 08:50:44;;;;;;;18.85;13.68;;;8.40;99.90;;;;;;5014662;28;20025;-59
2021/04/19 08:53:12;;;;;;;21.30;15.05;;;8.50;99.90;;;;;;5015261;28;20026;-57
2021/04/19 08:55:44;;;;;;;20.92;13.63;;;8.60;99.90;;;;;;4998594;28;20069;-56
2021/04/19 08:58:16;;;;;;;21.08;14.98;;;8.70;99.90;;;;;;5020027;28;20045;-59
2021/04/19 09:00:52;;;;;;;20.75;14.20;;;8.80;99.90;;;;;;5019535;28;20549;-56
2021/04/19 09:03:19;;;;;;;19.50;14.57;;;9.10;99.90;;;;;;5020292;28;20037;-59
2021/04/19 09:05:47;;;;;;;22.33;15.55;;;9.70;99.90;;;;;;5019505;28;20039;-58
2021/04/19 09:08:15;;;;;;;22.52;15.82;;;10.20;99.90;;;;;;5019211;28;20103;-55
2021/04/19 09:10:51;;;;;;;18.48;13.18;;;10.40;99.90;;;;;;5019259;28;20506;-55
2021/04/19 09:13:39;;;;;;;18.10;13.85;;;10.60;99.90;;;;;;5018029;28;20088;-57
2021/04/19 09:16:19;;;;;;;16.25;12.23;;;10.80;99.90;;;;;;5018456;28;20022;-55
2021/04/19 09:19:06;;;;;;;17.77;12.60;;;10.90;99.90;;;;;;5002284;28;20018;-57
2021/04/19 09:21:31;;;;;;;;;;;11.00;99.90;;;;;;5016499;28;20485;-57
2021/04/19 09:23:57;;;;;;;12.90;10.97;;;11.20;99.90;;;;;;5000326;28;19909;-56
2021/04/19 09:26:51;;;;;;;16.63;11.82;;;11.00;99.90;;;;;;5016463;28;20040;-57
2021/04/19 09:29:25;;;;;;;16.10;11.73;;;11.10;99.90;;;;;;5016898;28;20029;-57
2021/04/19 09:32:00;;;;;;;16.05;11.27;;;11.20;99.90;;;;;;5000315;28;20050;-57
2021/04/19 09:34:42;;;;;;;17.33;11.98;;;11.30;99.90;;;;;;5013884;28;20043;-56
2021/04/19 09:37:09;;;;;;;15.45;11.82;;;11.30;99.90;;;;;;5014277;28;20025;-59
2021/04/19 09:39:49;;;;;;;14.85;11.35;;;11.40;99.90;;;;;;5014840;28;20029;-56
2021/04/19 09:42:17;;;;;;;12.60;10.43;;;11.40;99.90;;;;;;5013978;28;20535;-57
2021/04/19 09:44:49;;;;;;;13.48;11.23;;;11.40;99.90;;;;;;5014543;28;20029;-58
2021/04/19 09:47:50;;;;;;;15.00;11.35;;;11.40;99.90;;;;;;5013092;28;20034;-57
2021/04/19 09:50:24;;;;;;;13.23;10.45;;;11.70;99.90;;;;;;5015982;28;20057;-56
2021/04/19 09:52:52;;;;;;;12.98;10.73;;;12.00;99.90;;;;;;5017813;28;20022;-55
2021/04/19 09:55:20;;;;;;;14.07;11.38;;;12.00;99.90;;;;;;5019492;28;20018;-55
2021/04/19 09:57:47;;;;;;;14.95;10.88;;;12.10;99.90;;;;;;5018361;28;20030;-57
2021/04/19 10:00:14;;;;;;;13.15;11.35;;;12.40;99.90;;;;;;5017985;28;20039;-55
2021/04/19 10:02:41;;;;;;;11.98;10.60;;;12.70;99.90;;;;;;5017976;28;20045;-56
2021/04/19 10:05:10;;;;;;;14.48;11.27;;;12.90;99.90;;;;;;5016605;28;20499;-58
2021/04/19 10:07:41;;;;;;;12.95;11.07;;;12.70;99.90;;;;;;5014200;28;20032;-56
2021/04/19 10:10:08;;;;;;;13.25;10.95;;;12.60;99.90;;;;;;4998147;28;20014;-55
2021/04/19 10:12:40;;;;;;;12.88;11.25;;;12.70;99.90;;;;;;5014305;28;20052;-55
2021/04/19 10:15:15;;;;;;;12.38;10.20;;;12.50;99.90;;;;;;5014554;28;20424;-57
2021/04/19 10:17:40;;;;;;;13.57;11.20;;;12.70;99.90;;;;;;5016671;28;20497;-53
2021/04/19 10:20:14;;;;;;;13.35;11.05;;;12.70;99.90;;;;;;5016660;28;20026;-57
2021/04/19 10:22:40;;;;;;;14.45;12.07;;;12.80;99.90;;;;;;5018605;28;20018;-57
2021/04/19 10:25:07;;;;;;;15.23;11.25;;;13.00;99.90;;;;;;5019225;28;20080;-56
2021/04/19 10:27:33;;;;;;;11.77;9.63;;;13.20;99.90;;;;;;5017664;28;20040;-55
2021/04/19 10:30:13;;;;;;;10.85;9.75;;;13.20;99.90;;;;;;4996775;28;20173;-57
2021/04/19 10:32:39;;;;;;;11.75;9.93;;;13.20;99.90;;;;;;5018346;28;20045;-55
2021/04/19 10:35:29;;;;;;;13.30;9.82;;;13.40;99.90;;;;;;5018299;28;20053;-56
2021/04/19 10:37:56;;;;;;;14.07;9.70;;;13.40;99.90;;;;;;5016801;28;20384;-58
2021/04/19 10:40:21;;;;;;;12.48;10.77;;;13.50;99.90;;;;;;5017404;28;20041;-56
2021/04/19 10:42:47;;;;;;;12.07;10.77;;;13.60;99.90;;;;;;5017964;28;20033;-58
2021/04/19 10:45:13;;;;;;;12.48;10.93;;;13.60;99.90;;;;;;5018546;28;20034;-58
2021/04/19 10:47:39;;;;;;;12.40;11.07;;;13.70;99.90;;;;;;5017969;28;20034;-56
2021/04/19 10:50:05;;;;;;;12.23;10.48;;;13.90;99.90;;;;;;5018137;28;20014;-56
2021/04/19 10:52:31;;;;;;;10.80;9.43;;;14.00;99.90;;;;;;5016715;28;20030;-57
2021/04/19 10:54:57;;;;;;;11.95;9.45;;;14.10;99.90;;;;;;5017777;28;20128;-58
2021/04/19 10:57:27;;;;;;;12.70;9.63;;;14.30;99.90;;;;;;5015844;28;20041;-58
2021/04/19 10:59:55;;;;;;;12.35;8.63;;;14.60;99.90;;;;;;5017016;28;20067;-55
2021/04/19 11:02:29;;;;;;;9.18;8.25;;;14.80;99.90;;;;;;5016494;28;20050;-56
2021/04/19 11:04:56;;;;;;;10.80;8.30;;;15.00;99.90;;;;;;5017475;28;20539;-57
2021/04/19 11:07:32;;;;;;;8.32;7.35;;;15.20;99.90;;;;;;5018299;28;20419;-57
2021/04/19 11:10:30;;;;;;;8.57;7.68;;;15.40;99.90;;;;;;5018305;28;20061;-56
2021/04/19 11:13:09;;;;;;;8.00;7.20;;;15.60;99.90;;;;;;4953939;28;20090;-58
2021/04/19 11:15:42;;;;;;;7.22;6.53;;;15.60;99.90;;;;;;5013640;28;20056;-57
2021/04/19 11:18:19;;;;;;;7.72;6.90;;;15.70;99.90;;;;;;5015887;28;20063;-58
2021/04/19 11:20:46;;;;;;;9.75;7.68;;;15.80;99.90;;;;;;5015250;28;20113;-57
2021/04/19 11:23:26;;;;;;;8.55;7.35;;;15.70;99.90;;;;;;5017215;28;20030;-56
2021/04/19 11:25:52;;;;;;;8.77;7.05;;;15.60;99.90;;;;;;5015708;28;20122;-57
2021/04/19 11:28:30;;;;;;;8.38;7.32;;;15.50;99.90;;;;;;5017804;28;20091;-56
2021/04/19 11:30:56;;;;;;;7.32;6.63;;;15.70;99.90;;;;;;5015530;28;20025;-57
2021/04/19 11:33:27;;;;;;;8.00;6.60;;;15.80;99.90;;;;;;5014169;28;20052;-58
2021/04/19 11:36:01;;;;;;;8.55;7.57;;;16.00;99.90;;;;;;5016671;28;20488;-56
2021/04/19 11:38:28;;;;;;;7.47;6.78;;;16.20;99.90;;;;;;5016837;28;20029;-58
2021/04/19 11:40:59;;;;;;;6.85;6.15;;;16.40;99.90;;;;;;5017349;28;20013;-54
2021/04/19 11:43:30;;;;;;;6.38;5.78;;;16.60;99.90;;;;;;5017427;28;20022;-54
2021/04/19 11:46:19;;;;;;;7.00;6.25;;;16.70;99.90;;;;;;5000504;28;20105;-56
2021/04/19 11:48:47;;;;;;;7.28;6.53;;;16.80;99.90;;;;;;5017032;28;20069;-56
2021/04/19 11:51:16;;;;;;;7.03;6.32;;;17.00;99.90;;;;;;5017730;28;20049;-55
2021/04/19 11:53:45;;;;;;;7.63;6.88;;;17.00;98.70;;;;;;5017013;28;20084;-56
2021/04/19 11:56:12;;;;;;;9.05;7.03;;;16.70;99.90;;;;;;5016121;28;20042;-55
2021/04/19 11:58:43;;;;;;;7.25;6.55;;;16.70;99.90;;;;;;5017120;28;20022;-56
2021/04/19 12:01:11;;;;;;;9.15;6.90;;;16.40;99.90;;;;;;5018446;28;20199;-56
2021/04/19 12:03:41;;;;;;;6.85;6.07;;;16.50;99.90;;;;;;5016902;28;20013;-54
2021/04/19 12:06:08;;;;;;;7.10;6.40;;;16.50;99.90;;;;;;5015499;28;20844;-53
2021/04/19 12:08:34;;;;;;;6.25;5.65;;;16.60;99.90;;;;;;4999637;28;20035;-56
2021/04/19 12:11:01;;;;;;;6.68;6.07;;;16.70;99.10;;;;;;5018163;28;20091;-56
2021/04/19 12:13:27;;;;;;;6.15;5.25;;;16.90;99.60;;;;;;5017785;28;20017;-56
2021/04/19 12:15:53;;;;;;;7.25;5.50;;;17.00;98.40;;;;;;5017153;28;20022;-57
2021/04/19 12:18:20;;;;;;;6.32;5.72;;;17.00;98.10;;;;;;5017436;28;20048;-53
2021/04/19 12:20:48;;;;;;;8.55;7.75;;;16.90;95.60;;;;;;5016903;28;20101;-54
2021/04/19 12:23:14;;;;;;;9.00;7.15;;;16.40;97.00;;;;;;5017675;28;20392;-56
2021/04/19 12:25:40;;;;;;;9.00;6.63;;;16.20;99.00;;;;;;5016570;28;20014;-56
2021/04/19 12:28:06;;;;;;;11.27;6.95;;;16.20;95.80;;;;;;5017110;28;20030;-56
2021/04/19 12:30:32;;;;;;;11.27;8.02;;;16.20;95.70;;;;;;5019112;28;20096;-57
2021/04/19 12:32:57;;;;;;;11.15;9.25;;;16.20;97.40;;;;;;5021264;28;20054;-53
2021/04/19 12:35:24;;;;;;;10.57;8.60;;;16.20;97.40;;;;;;5021005;28;20021;-56
2021/04/19 12:37:50;;;;;;;10.60;9.50;;;16.10;97.40;;;;;;5019532;28;20023;-56
2021/04/19 12:40:17;;;;;;;10.27;8.93;;;16.20;98.30;;;;;;5020792;28;20084;-58
2021/04/19 12:42:42;;;;;;;15.60;9.30;;;16.20;99.90;;;;;;5020294;28;20156;-58
2021/04/19 12:45:08;;;;;;;9.73;8.02;;;16.50;97.40;;;;;;5020132;28;20431;-56
2021/04/19 12:47:35;;;;;;;12.90;9.10;;;16.50;96.90;;;;;;5020215;28;20033;-57
2021/04/19 12:50:01;;;;;;;10.32;9.23;;;16.60;97.20;;;;;;5020606;28;20021;-55